Time;durP1;ratioP1;P1;durP2;ratioP2;P2;SDS_P1;SDS_P2;PMS_P1;PMS_P2;Temp;Humidity;BMP_temperature;BMP_pressure;BME280_temperature;BME280_humidity;BME280_pressure;Samples;Min_cycle;Max_cycle;Signal;HPM_P1;HPM_P2
2023/10/31 00:00:09;;;;;;;1.20;0.70;;;;;;;11.70;100.00;154364.53;5001776;28;20795;-75
2023/10/31 00:02:35;;;;;;;0.90;0.47;;;;;;;11.66;100.00;154352.78;5018548;28;20495;-75
2023/10/31 00:05:02;;;;;;;1.60;0.77;;;;;;;11.64;100.00;154348.94;5024520;28;20467;-76
2023/10/31 00:07:29;;;;;;;3.13;0.70;;;;;;;11.63;100.00;154347.63;5022397;28;20444;-76
2023/10/31 00:09:55;;;;;;;1.27;0.57;;;;;;;11.63;100.00;154346.31;5016381;28;20471;-76
2023/10/31 00:12:22;;;;;;;0.70;0.40;;;;;;;11.59;100.00;154337.28;5029047;28;20436;-76
2023/10/31 00:14:49;;;;;;;1.00;0.63;;;;;;;11.62;100.00;154345.00;5028784;28;20502;-76
2023/10/31 00:17:16;;;;;;;0.97;0.70;;;;;;;11.65;100.00;154350.22;5011369;28;20506;-76
2023/10/31 00:19:44;;;;;;;1.00;0.50;;;;;;;11.61;100.00;154341.16;5006277;28;20456;-76
2023/10/31 00:22:10;;;;;;;1.33;0.70;;;;;;;11.60;100.00;154339.84;5021547;28;20476;-76
2023/10/31 00:24:37;;;;;;;1.20;0.63;;;;;;;11.60;100.00;154338.53;5024059;28;20537;-76
2023/10/31 00:27:04;;;;;;;1.57;1.00;;;;;;;11.59;100.00;154335.97;5010910;28;20493;-76
2023/10/31 00:29:30;;;;;;;1.13;0.60;;;;;;;11.61;100.00;154341.16;5028848;28;20456;-76
2023/10/31 00:31:57;;;;;;;1.40;0.90;;;;;;;11.60;100.00;154338.53;5010051;28;20974;-76
2023/10/31 00:34:25;;;;;;;1.17;0.80;;;;;;;11.60;100.00;154339.84;5008687;28;20471;-76
2023/10/31 00:36:51;;;;;;;2.40;2.07;;;;;;;11.59;100.00;154335.97;5025723;28;20447;-76
2023/10/31 00:39:18;;;;;;;1.47;0.70;;;;;;;11.60;100.00;154338.53;5003799;28;20447;-76
2023/10/31 00:41:46;;;;;;;1.00;0.57;;;;;;;11.59;100.00;154337.28;5006355;28;20491;-76
2023/10/31 00:44:12;;;;;;;1.20;0.80;;;;;;;11.56;100.00;154328.19;5020234;28;21047;-76
2023/10/31 00:46:39;;;;;;;2.77;0.80;;;;;;;11.56;100.00;154328.19;5001424;28;20447;-75
2023/10/31 00:49:05;;;;;;;1.10;0.70;;;;;;;11.56;100.00;154328.19;5020699;28;20455;-76
2023/10/31 00:51:33;;;;;;;1.00;0.40;;;;;;;11.53;100.00;154320.41;5000319;28;20466;-76
2023/10/31 00:54:00;;;;;;;1.10;0.60;;;;;;;11.54;100.00;154324.28;5000667;28;21019;-76
2023/10/31 00:56:26;;;;;;;1.27;0.60;;;;;;;11.54;100.00;154323.03;5021788;28;20455;-75
2023/10/31 00:58:52;;;;;;;1.17;0.60;;;;;;;11.51;100.00;154316.53;4984848;28;20495;-75
2023/10/31 01:01:18;;;;;;;1.30;0.67;;;;;;;11.51;100.00;154315.25;5031456;28;20452;-76
2023/10/31 01:03:45;;;;;;;1.60;0.77;;;;;;;11.49;100.00;154310.06;5027074;28;20210;-76
2023/10/31 01:06:11;;;;;;;1.17;0.63;;;;;;;11.47;100.00;154304.84;4999500;28;21026;-75
2023/10/31 01:08:39;;;;;;;0.93;0.60;;;;;;;11.46;100.00;154302.28;5021804;28;20543;-76
2023/10/31 01:11:06;;;;;;;1.20;0.60;;;;;;;11.40;100.00;154288.03;5019957;28;20434;-76
2023/10/31 01:13:33;;;;;;;1.13;0.63;;;;;;;11.37;100.00;154280.25;4999478;28;20815;-76
2023/10/31 01:16:00;;;;;;;0.90;0.40;;;;;;;11.34;100.00;154272.47;5001269;28;20449;-75
2023/10/31 01:18:27;;;;;;;0.90;0.53;;;;;;;11.29;100.00;154259.53;4998478;28;20479;-75
2023/10/31 01:20:53;;;;;;;1.30;0.43;;;;;;;11.23;100.00;154242.66;4998388;28;20481;-76
2023/10/31 01:23:20;;;;;;;1.77;0.70;;;;;;;11.19;100.00;154232.31;5002870;28;20455;-76
2023/10/31 01:25:48;;;;;;;1.17;0.67;;;;;;;11.16;100.00;154224.53;5024430;28;20482;-76
2023/10/31 01:28:14;;;;;;;1.27;0.50;;;;;;;11.16;100.00;154225.84;5004016;28;20467;-76
2023/10/31 01:30:41;;;;;;;0.90;0.50;;;;;;;11.13;100.00;154218.06;5019780;28;20564;-75
2023/10/31 01:33:07;;;;;;;1.00;0.40;;;;;;;11.07;100.00;154201.25;5023170;28;20935;-76
2023/10/31 01:35:34;;;;;;;1.10;0.63;;;;;;;11.05;100.00;154196.03;5026061;28;20518;-76
2023/10/31 01:38:00;;;;;;;1.30;0.70;;;;;;;10.98;100.00;154180.53;4998915;28;20467;-76
2023/10/31 01:40:27;;;;;;;1.53;0.90;;;;;;;10.92;100.00;154164.97;5007144;28;20463;-76
2023/10/31 01:42:56;;;;;;;1.40;0.70;;;;;;;10.94;100.00;154170.13;5018693;28;20549;-76
2023/10/31 01:45:22;;;;;;;0.90;0.50;;;;;;;10.90;100.00;154158.50;5001057;28;20476;-76
2023/10/31 01:47:50;;;;;;;1.57;1.00;;;;;;;10.83;100.00;154141.63;5025908;28;20448;-76
2023/10/31 01:50:17;;;;;;;1.10;0.50;;;;;;;10.81;100.00;154135.16;5008469;28;20446;-76
2023/10/31 01:52:44;;;;;;;0.97;0.60;;;;;;;10.77;100.00;154126.13;4986297;28;20451;-76
2023/10/31 01:55:11;;;;;;;1.40;0.80;;;;;;;10.71;100.00;154110.56;5018702;28;20456;-76
2023/10/31 01:57:38;;;;;;;1.20;0.80;;;;;;;10.74;100.00;154117.03;5024461;28;20838;-76
2023/10/31 02:00:07;;;;;;;1.17;0.63;;;;;;;10.72;100.00;154113.13;5009874;28;20439;-75
2023/10/31 02:02:38;;;;;;;1.13;0.47;;;;;;;10.67;100.00;154100.19;5005822;28;20463;-75
2023/10/31 02:05:06;;;;;;;0.90;0.50;;;;;;;10.70;100.00;154106.66;5016816;28;20549;-76
2023/10/31 02:07:32;;;;;;;1.03;0.53;;;;;;;10.66;100.00;154096.31;4987120;28;20463;-75
2023/10/31 02:09:59;;;;;;;1.10;0.70;;;;;;;10.63;100.00;154089.84;5018964;28;20451;-76
2023/10/31 02:12:33;;;;;;;1.07;0.63;;;;;;;10.67;100.00;154100.19;4986324;28;20463;-76
2023/10/31 02:15:00;;;;;;;0.90;0.67;;;;;;;10.66;100.00;154097.63;5015093;28;20551;-76
2023/10/31 02:17:28;;;;;;;1.10;0.70;;;;;;;10.61;100.00;154084.69;4998711;28;20451;-76
2023/10/31 02:19:54;;;;;;;1.07;0.70;;;;;;;10.57;100.00;154073.00;5004806;28;20478;-76
2023/10/31 02:22:22;;;;;;;0.90;0.50;;;;;;;10.50;100.00;154054.88;5008465;28;20479;-75
2023/10/31 02:24:49;;;;;;;1.23;0.63;;;;;;;10.46;100.00;154045.81;5018564;28;20447;-76
2023/10/31 02:27:15;;;;;;;1.10;0.60;;;;;;;10.47;100.00;154047.13;5022496;28;21045;-76
2023/10/31 02:29:42;;;;;;;1.07;0.50;;;;;;;10.52;100.00;154060.06;5006381;28;20459;-76
2023/10/31 02:32:08;;;;;;;0.90;0.50;;;;;;;10.49;100.00;154053.59;4988950;28;20452;-76
2023/10/31 02:34:35;;;;;;;1.40;0.67;;;;;;;10.47;100.00;154048.41;5013278;28;20451;-76
2023/10/31 02:37:02;;;;;;;1.30;0.60;;;;;;;10.47;100.00;154048.41;5011789;28;20446;-75
2023/10/31 02:39:29;;;;;;;1.00;0.50;;;;;;;10.50;100.00;154054.88;5025484;28;20478;-76
2023/10/31 02:41:56;;;;;;;1.00;0.60;;;;;;;10.48;100.00;154051.03;5002260;28;20961;-76
2023/10/31 02:44:22;;;;;;;1.10;0.70;;;;;;;10.39;100.00;154029.00;5028054;28;20455;-76
2023/10/31 02:46:49;;;;;;;0.90;0.50;;;;;;;10.41;100.00;154032.88;5006508;28;20471;-76
2023/10/31 02:49:16;;;;;;;0.80;0.50;;;;;;;10.46;100.00;154045.81;5005710;28;20459;-76
2023/10/31 02:51:42;;;;;;;1.03;0.60;;;;;;;10.45;100.00;154041.94;5006409;28;20459;-76
2023/10/31 02:54:09;;;;;;;1.17;0.50;;;;;;;10.42;100.00;154035.47;5021722;28;20459;-76
2023/10/31 02:56:37;;;;;;;2.50;1.00;;;;;;;10.36;100.00;154019.94;5008253;28;20491;-76
2023/10/31 02:59:04;;;;;;;1.57;0.60;;;;;;;10.39;100.00;154027.69;5021850;28;20574;-76
2023/10/31 03:01:31;;;;;;;1.60;0.60;;;;;;;10.43;100.00;154038.09;5017324;28;20455;-76
2023/10/31 03:03:57;;;;;;;1.43;0.60;;;;;;;10.43;100.00;154036.78;5028842;28;20440;-76
2023/10/31 03:06:24;;;;;;;1.40;0.53;;;;;;;10.39;100.00;154027.69;5024251;28;20487;-76
2023/10/31 03:08:50;;;;;;;1.37;0.60;;;;;;;10.36;100.00;154019.94;5003873;28;20456;-76
2023/10/31 03:11:24;;;;;;;2.50;0.90;;;;;;;10.37;100.00;154023.84;5026962;28;20470;-76
2023/10/31 03:13:52;;;;;;;1.60;0.63;;;;;;;10.34;100.00;154014.75;5018244;28;20528;-75
2023/10/31 03:16:19;;;;;;;1.47;0.70;;;;;;;10.37;100.00;154023.84;5009605;28;20447;-76
2023/10/31 03:18:46;;;;;;;1.60;0.83;;;;;;;10.40;100.00;154030.31;5030580;28;20459;-76
2023/10/31 03:21:13;;;;;;;1.80;0.60;;;;;;;10.43;100.00;154036.78;5012310;28;20431;-75
2023/10/31 03:23:39;;;;;;;1.23;0.73;;;;;;;10.40;100.00;154030.31;5012611;28;20451;-76
2023/10/31 03:26:06;;;;;;;3.30;0.87;;;;;;;10.39;100.00;154027.69;5008817;28;21151;-76
2023/10/31 03:28:32;;;;;;;1.50;0.80;;;;;;;10.42;100.00;154035.47;4998639;28;20740;-76
2023/10/31 03:31:00;;;;;;;1.10;0.80;;;;;;;10.39;100.00;154027.69;5005615;28;20459;-76
2023/10/31 03:33:27;;;;;;;1.20;0.80;;;;;;;10.42;100.00;154035.47;5022419;28;20458;-76
2023/10/31 03:35:54;;;;;;;2.80;0.77;;;;;;;10.36;100.00;154019.94;5011138;28;20447;-76
2023/10/31 03:38:20;;;;;;;1.40;0.90;;;;;;;10.33;100.00;154012.16;5016674;28;20883;-76
2023/10/31 03:40:47;;;;;;;1.20;0.60;;;;;;;10.29;100.00;154001.81;5011747;28;20447;-76
2023/10/31 03:43:14;;;;;;;1.73;1.03;;;;;;;10.28;100.00;154000.50;5004110;28;20458;-76
2023/10/31 03:45:41;;;;;;;1.10;0.80;;;;;;;10.27;100.00;153997.91;5020273;28;20467;-76
2023/10/31 03:48:09;;;;;;;0.90;0.67;;;;;;;10.22;100.00;153983.66;5025824;28;20799;-76
2023/10/31 03:50:36;;;;;;;1.00;0.67;;;;;;;10.22;100.00;153983.66;5001260;28;20525;-76
2023/10/31 03:53:02;;;;;;;3.83;0.80;;;;;;;10.19;100.00;153977.19;5021757;28;20463;-76
2023/10/31 03:55:30;;;;;;;1.60;0.90;;;;;;;10.19;100.00;153975.94;5006801;28;20448;-76
2023/10/31 03:57:56;;;;;;;1.57;0.73;;;;;;;10.16;100.00;153969.47;5020394;28;20491;-76
2023/10/31 04:00:23;;;;;;;1.87;0.90;;;;;;;10.14;100.00;153963.00;5025739;28;20462;-76
2023/10/31 04:02:49;;;;;;;1.40;0.90;;;;;;;10.12;100.00;153957.72;5021991;28;20476;-75
2023/10/31 04:05:18;;;;;;;2.13;0.70;;;;;;;10.10;100.00;153952.56;5004407;28;20680;-76
2023/10/31 04:07:45;;;;;;;1.97;0.83;;;;;;;10.09;100.00;153949.97;5005599;28;21026;-76
2023/10/31 04:10:11;;;;;;;1.60;1.00;;;;;;;10.07;100.00;153944.81;5020519;28;20510;-76
2023/10/31 04:12:38;;;;;;;1.50;0.77;;;;;;;10.02;100.00;153931.88;5021549;28;20460;-76
2023/10/31 04:15:05;;;;;;;1.13;0.53;;;;;;;9.98;100.00;153921.53;5029174;28;20497;-76
2023/10/31 04:17:32;;;;;;;1.70;1.10;;;;;;;9.99;100.00;153925.38;5003022;28;21002;-76
2023/10/31 04:19:58;;;;;;;1.80;0.90;;;;;;;9.98;100.00;153922.78;5016398;28;20992;-75
2023/10/31 04:22:26;;;;;;;1.70;0.80;;;;;;;9.95;100.00;153913.75;5001265;28;20518;-76
2023/10/31 04:24:53;;;;;;;1.00;0.70;;;;;;;9.94;100.00;153911.16;5008901;28;20459;-75
2023/10/31 04:27:19;;;;;;;2.40;0.77;;;;;;;9.97;100.00;153918.91;5016629;28;21048;-76
2023/10/31 04:29:46;;;;;;;1.27;0.80;;;;;;;9.98;100.00;153921.53;5011316;28;20534;-77
2023/10/31 04:32:13;;;;;;;1.40;0.97;;;;;;;9.96;100.00;153916.31;5003956;28;20455;-76
2023/10/31 04:34:39;;;;;;;1.77;0.80;;;;;;;9.97;100.00;153920.22;5007545;28;20455;-76
2023/10/31 04:37:06;;;;;;;1.40;0.80;;;;;;;9.94;100.00;153911.16;5011262;28;20436;-76
2023/10/31 04:39:34;;;;;;;1.47;0.77;;;;;;;9.91;100.00;153904.69;5001706;28;20457;-76
2023/10/31 04:42:00;;;;;;;1.00;0.60;;;;;;;9.89;100.00;153898.22;5004402;28;20899;-76
2023/10/31 04:44:27;;;;;;;1.13;0.87;;;;;;;9.88;100.00;153896.91;5003999;28;20518;-75
2023/10/31 04:46:54;;;;;;;2.53;0.90;;;;;;;9.89;100.00;153899.53;5008705;28;20467;-75
2023/10/31 04:49:20;;;;;;;1.30;0.87;;;;;;;9.95;100.00;153913.75;5030005;28;20869;-75
2023/10/31 04:51:53;;;;;;;1.30;0.80;;;;;;;9.86;100.00;153890.44;4998527;28;20514;-75
2023/10/31 04:54:19;;;;;;;2.33;0.80;;;;;;;9.84;100.00;153886.59;5021836;28;20459;-75
2023/10/31 04:56:48;;;;;;;1.23;0.83;;;;;;;9.82;100.00;153882.69;5020628;28;20449;-76
2023/10/31 04:59:14;;;;;;;0.90;0.50;;;;;;;9.76;100.00;153867.19;5000356;28;20514;-76
2023/10/31 05:01:41;;;;;;;1.00;0.80;;;;;;;9.75;100.00;153864.56;5007876;28;20448;-75
2023/10/31 05:04:08;;;;;;;1.40;0.70;;;;;;;9.78;100.00;153872.34;5018272;28;20457;-75
2023/10/31 05:06:34;;;;;;;3.70;0.80;;;;;;;9.82;100.00;153880.13;5000281;28;20463;-76
2023/10/31 05:09:01;;;;;;;1.60;0.87;;;;;;;9.77;100.00;153869.75;5025886;28;20462;-76
2023/10/31 05:11:27;;;;;;;1.03;0.60;;;;;;;9.79;100.00;153874.91;5026941;28;20736;-75
2023/10/31 05:13:55;;;;;;;1.23;1.00;;;;;;;9.76;100.00;153867.19;5023426;28;20525;-75
2023/10/31 05:16:21;;;;;;;2.73;0.87;;;;;;;9.72;100.00;153856.81;5017609;28;20504;-75
2023/10/31 05:18:48;;;;;;;1.10;0.80;;;;;;;9.70;100.00;153850.34;5037344;28;21025;-75
2023/10/31 05:21:19;;;;;;;1.30;0.70;;;;;;;9.65;100.00;153838.72;5004543;28;20451;-77
2023/10/31 05:23:46;;;;;;;2.53;0.87;;;;;;;9.67;100.00;153843.88;5026347;28;20525;-77
2023/10/31 05:26:12;;;;;;;1.20;0.80;;;;;;;9.65;100.00;153837.41;5031993;28;20482;-75
2023/10/31 05:28:39;;;;;;;1.40;0.83;;;;;;;9.64;100.00;153834.81;5006100;28;20453;-75
2023/10/31 05:31:07;;;;;;;1.40;0.80;;;;;;;9.63;100.00;153833.53;4999012;28;21016;-75
2023/10/31 05:33:33;;;;;;;1.33;0.70;;;;;;;9.59;100.00;153823.16;4987781;28;20448;-75
2023/10/31 05:36:00;;;;;;;2.77;0.70;;;;;;;9.56;100.00;153815.41;5022023;28;20974;-74
2023/10/31 05:38:26;;;;;;;0.93;0.60;;;;;;;9.52;100.00;153805.06;5021622;28;20452;-75
2023/10/31 05:40:53;;;;;;;1.40;0.70;;;;;;;9.51;100.00;153801.16;5007614;28;20463;-75
2023/10/31 05:43:19;;;;;;;1.20;0.70;;;;;;;9.49;100.00;153797.31;5025030;28;20989;-75
2023/10/31 05:45:46;;;;;;;1.40;0.80;;;;;;;9.48;100.00;153793.41;4996272;28;20461;-76
2023/10/31 05:48:14;;;;;;;0.90;0.57;;;;;;;9.50;100.00;153799.91;5007532;28;20451;-75
2023/10/31 05:50:42;;;;;;;1.63;1.17;;;;;;;9.46;100.00;153788.22;5025599;28;20454;-75
2023/10/31 05:53:09;;;;;;;1.37;0.80;;;;;;;9.44;100.00;153784.38;5009508;28;20526;-75
2023/10/31 05:55:39;;;;;;;1.20;0.80;;;;;;;9.41;100.00;153775.31;5024461;28;20475;-75
2023/10/31 05:58:06;;;;;;;1.37;1.00;;;;;;;9.41;100.00;153776.59;5027187;28;20962;-76
2023/10/31 06:00:32;;;;;;;1.23;1.03;;;;;;;9.40;100.00;153772.75;5025199;28;20459;-75
2023/10/31 06:02:58;;;;;;;2.93;2.00;;;;;;;9.41;100.00;153775.31;5024657;28;20459;-75
2023/10/31 06:05:26;;;;;;;2.10;1.80;;;;;;;9.41;100.00;153776.59;5021502;28;20502;-76
2023/10/31 06:07:53;;;;;;;1.77;1.43;;;;;;;9.36;100.00;153762.38;5019021;28;20478;-76
2023/10/31 06:10:21;;;;;;;4.37;2.70;;;;;;;9.35;100.00;153759.75;5014703;28;20894;-76
2023/10/31 06:12:47;;;;;;;3.00;2.00;;;;;;;9.36;100.00;153762.38;5018556;28;20455;-76
2023/10/31 06:15:14;;;;;;;1.97;1.13;;;;;;;9.34;100.00;153757.22;5019734;28;20452;-76
2023/10/31 06:17:40;;;;;;;1.90;1.50;;;;;;;9.33;100.00;153755.91;5019265;28;20510;-76
2023/10/31 06:20:08;;;;;;;1.37;1.00;;;;;;;9.33;100.00;153755.91;5000829;28;20458;-76
2023/10/31 06:22:36;;;;;;;1.07;0.97;;;;;;;9.32;100.00;153753.31;4998927;28;20575;-76
2023/10/31 06:25:03;;;;;;;1.70;0.80;;;;;;;9.29;100.00;153745.59;5017918;28;20488;-76
2023/10/31 06:27:29;;;;;;;1.37;0.97;;;;;;;9.29;100.00;153745.59;5018627;28;20546;-75
2023/10/31 06:29:56;;;;;;;1.50;1.00;;;;;;;9.29;100.00;153745.59;4983098;28;20522;-77
2023/10/31 06:32:22;;;;;;;1.63;0.90;;;;;;;9.30;100.00;153748.13;5020753;28;20539;-75
2023/10/31 06:34:49;;;;;;;1.27;0.90;;;;;;;9.27;100.00;153740.38;5018416;28;20811;-75
2023/10/31 06:37:15;;;;;;;3.50;0.90;;;;;;;9.24;100.00;153732.59;5000724;28;20451;-75
2023/10/31 06:39:43;;;;;;;1.10;0.73;;;;;;;9.22;100.00;153727.44;5023626;28;20452;-76
2023/10/31 06:42:10;;;;;;;1.67;1.03;;;;;;;9.24;100.00;153731.34;5004408;28;20468;-75
2023/10/31 06:44:36;;;;;;;1.30;0.90;;;;;;;9.26;100.00;153737.81;4997288;28;20460;-76
2023/10/31 06:47:03;;;;;;;1.77;0.90;;;;;;;9.28;100.00;153742.97;5018280;28;20479;-75
2023/10/31 06:49:30;;;;;;;2.07;0.60;;;;;;;9.29;100.00;153745.59;5004532;28;20535;-75
2023/10/31 06:51:56;;;;;;;1.73;0.90;;;;;;;9.29;100.00;153744.28;5020918;28;20470;-75
2023/10/31 06:54:23;;;;;;;1.30;0.70;;;;;;;9.25;100.00;153735.22;4998447;28;20871;-75
2023/10/31 06:56:50;;;;;;;1.30;1.10;;;;;;;9.29;100.00;153744.28;5017661;28;20448;-75
2023/10/31 06:59:18;;;;;;;1.20;0.90;;;;;;;9.28;100.00;153741.69;5017250;28;21024;-75
2023/10/31 07:01:46;;;;;;;1.23;0.73;;;;;;;9.30;100.00;153748.13;4981808;28;20448;-75
2023/10/31 07:04:13;;;;;;;1.13;0.77;;;;;;;9.31;100.00;153750.75;4993141;28;20816;-75
2023/10/31 07:06:39;;;;;;;1.73;0.77;;;;;;;9.33;100.00;153755.91;4997952;28;22074;-75
2023/10/31 07:09:06;;;;;;;1.57;1.10;;;;;;;9.34;100.00;153758.50;4998564;28;20452;-75
2023/10/31 07:11:34;;;;;;;1.50;1.00;;;;;;;9.37;100.00;153766.22;5018860;28;20495;-75
2023/10/31 07:14:03;;;;;;;1.10;0.87;;;;;;;9.42;100.00;153777.91;5018756;28;20452;-75
2023/10/31 07:16:30;;;;;;;2.13;0.97;;;;;;;9.43;100.00;153781.75;5013688;28;20563;-75
2023/10/31 07:18:56;;;;;;;1.00;0.60;;;;;;;9.39;100.00;153771.44;4997771;28;20502;-75
2023/10/31 07:21:23;;;;;;;1.07;0.80;;;;;;;9.44;100.00;153783.06;4997742;28;20464;-75
2023/10/31 07:23:49;;;;;;;1.23;0.90;;;;;;;9.46;100.00;153789.53;5016676;28;20451;-75
2023/10/31 07:26:16;;;;;;;1.40;0.87;;;;;;;9.50;100.00;153798.59;5016243;28;20448;-76
2023/10/31 07:28:43;;;;;;;1.20;0.63;;;;;;;9.51;100.00;153801.16;5016338;28;20449;-76
2023/10/31 07:31:11;;;;;;;1.73;0.97;;;;;;;9.53;100.00;153807.63;4998186;28;20598;-76
2023/10/31 07:33:37;;;;;;;1.33;0.90;;;;;;;9.55;100.00;153811.53;4995637;28;20893;-76
2023/10/31 07:36:05;;;;;;;1.60;0.97;;;;;;;9.58;100.00;153820.56;5015709;28;20455;-75
2023/10/31 07:38:31;;;;;;;1.13;0.70;;;;;;;9.61;100.00;153828.34;5018089;28;20458;-76
2023/10/31 07:40:58;;;;;;;1.60;1.00;;;;;;;9.61;100.00;153828.34;5017618;28;20452;-76
2023/10/31 07:43:24;;;;;;;1.97;0.67;;;;;;;9.64;100.00;153834.81;4995551;28;20474;-76
2023/10/31 07:45:51;;;;;;;1.30;0.80;;;;;;;9.67;100.00;153842.56;4997903;28;20525;-76
2023/10/31 07:48:19;;;;;;;1.67;0.97;;;;;;;9.71;100.00;153854.25;5016611;28;20486;-76
2023/10/31 07:50:45;;;;;;;1.93;1.10;;;;;;;9.72;100.00;153856.81;4995789;28;21013;-75
2023/10/31 07:53:12;;;;;;;1.10;0.70;;;;;;;9.77;100.00;153869.75;5015035;28;20967;-76
2023/10/31 07:55:38;;;;;;;1.30;0.80;;;;;;;9.82;100.00;153880.13;4996518;28;21599;-76
2023/10/31 07:58:09;;;;;;;2.00;0.70;;;;;;;9.85;100.00;153889.16;4997919;28;21069;-76
2023/10/31 08:00:38;;;;;;;1.40;0.77;;;;;;;9.88;100.00;153895.59;4998906;28;20468;-75
2023/10/31 08:03:05;;;;;;;2.23;0.83;;;;;;;9.89;100.00;153898.22;5016959;28;20539;-75
2023/10/31 08:05:33;;;;;;;1.07;0.80;;;;;;;9.93;100.00;153908.59;5015469;28;20467;-74
2023/10/31 08:07:59;;;;;;;2.50;0.80;;;;;;;9.94;100.00;153911.16;5017555;28;20504;-75
2023/10/31 08:10:26;;;;;;;2.20;2.00;;;;;;;9.98;100.00;153922.78;5017842;28;20845;-75
2023/10/31 08:12:52;;;;;;;1.80;1.10;;;;;;;10.01;100.00;153930.56;5015721;28;20448;-75
2023/10/31 08:15:19;;;;;;;1.77;0.70;;;;;;;10.08;100.00;153947.41;4997329;28;20967;-75
2023/10/31 08:17:45;;;;;;;1.40;0.70;;;;;;;10.11;100.00;153955.19;4997214;28;20852;-76
2023/10/31 08:20:13;;;;;;;1.10;0.60;;;;;;;10.15;100.00;153965.56;5014775;28;20455;-75
2023/10/31 08:22:42;;;;;;;1.73;0.60;;;;;;;10.18;100.00;153974.63;5015561;28;20828;-75
2023/10/31 08:25:09;;;;;;;1.87;0.70;;;;;;;10.21;100.00;153982.41;5019217;28;20982;-75
2023/10/31 08:27:35;;;;;;;1.37;0.90;;;;;;;10.28;100.00;153999.22;4998429;28;20480;-76
2023/10/31 08:30:02;;;;;;;0.97;0.60;;;;;;;10.36;100.00;154019.94;4998468;28;20529;-77
2023/10/31 08:32:28;;;;;;;1.40;0.90;;;;;;;10.42;100.00;154035.47;5015783;28;20478;-75
2023/10/31 08:34:56;;;;;;;1.47;0.80;;;;;;;10.47;100.00;154047.13;5000701;28;20448;-75
2023/10/31 08:37:22;;;;;;;0.90;0.60;;;;;;;10.52;100.00;154061.34;4994714;28;20456;-75
2023/10/31 08:39:50;;;;;;;1.80;0.80;;;;;;;10.58;100.00;154076.91;5013153;28;20510;-75
2023/10/31 08:42:17;;;;;;;3.83;0.97;;;;;;;10.62;100.00;154087.25;5015728;28;20494;-75
2023/10/31 08:44:43;;;;;;;1.60;0.90;;;;;;;10.64;100.00;154091.16;5004246;28;20485;-75
2023/10/31 08:47:12;;;;;;;1.43;0.93;;;;;;;10.66;100.00;154097.63;4994975;28;20468;-75
2023/10/31 08:49:38;;;;;;;1.00;0.80;;;;;;;10.73;100.00;154115.75;5016489;28;20883;-75
2023/10/31 08:52:05;;;;;;;3.20;1.43;;;;;;;10.75;100.00;154120.91;4994492;28;21049;-75
2023/10/31 08:54:32;;;;;;;2.30;0.97;;;;;;;10.78;100.00;154128.69;5014691;28;20505;-75
2023/10/31 08:57:00;;;;;;;2.73;1.20;;;;;;;10.80;100.00;154133.84;4996606;28;20789;-75
2023/10/31 08:59:27;;;;;;;1.10;0.70;;;;;;;10.83;100.00;154140.31;5012954;28;20447;-75
2023/10/31 09:01:53;;;;;;;1.50;1.10;;;;;;;10.87;100.00;154152.03;5015628;28;20517;-75
2023/10/31 09:04:20;;;;;;;3.87;1.10;;;;;;;10.93;100.00;154167.53;5012568;28;20509;-75
2023/10/31 09:06:46;;;;;;;3.50;0.90;;;;;;;10.96;100.00;154174.06;4999345;28;20454;-75
2023/10/31 09:09:13;;;;;;;1.80;1.00;;;;;;;10.99;100.00;154183.09;5014270;28;20466;-75
2023/10/31 09:11:40;;;;;;;1.40;0.80;;;;;;;11.04;100.00;154194.72;5014900;28;20459;-75
2023/10/31 09:14:07;;;;;;;1.43;0.70;;;;;;;11.12;100.00;154214.19;5014627;28;21221;-75
2023/10/31 09:16:34;;;;;;;2.30;0.80;;;;;;;11.16;100.00;154224.53;5003852;28;20940;-75
2023/10/31 09:19:00;;;;;;;1.73;1.17;;;;;;;11.22;100.00;154241.41;5014574;28;20455;-75
2023/10/31 09:21:27;;;;;;;1.67;1.10;;;;;;;11.26;100.00;154251.75;5015392;28;20538;-75
2023/10/31 09:23:53;;;;;;;2.33;1.00;;;;;;;11.29;100.00;154258.22;4999076;28;21065;-75
2023/10/31 09:26:20;;;;;;;4.83;1.03;;;;;;;11.29;100.00;154258.22;4996300;28;21023;-75
2023/10/31 09:28:49;;;;;;;2.70;1.00;;;;;;;11.36;100.00;154276.34;5014566;28;20475;-75
2023/10/31 09:31:17;;;;;;;2.97;0.97;;;;;;;11.39;100.00;154285.41;5011282;28;20480;-76
2023/10/31 09:33:44;;;;;;;1.47;0.90;;;;;;;11.44;100.00;154297.06;5014402;28;20678;-76
2023/10/31 09:36:11;;;;;;;3.33;1.17;;;;;;;11.47;100.00;154304.84;5017258;28;20455;-76
2023/10/31 09:38:37;;;;;;;2.30;1.13;;;;;;;11.47;100.00;154306.16;5000546;28;20463;-76
2023/10/31 09:41:05;;;;;;;1.53;1.00;;;;;;;11.47;100.00;154304.84;4992203;28;20537;-76
2023/10/31 09:43:31;;;;;;;1.50;0.80;;;;;;;11.50;100.00;154312.63;5019782;28;20460;-76
2023/10/31 09:46:00;;;;;;;1.33;0.90;;;;;;;11.53;100.00;154320.41;5018633;28;20463;-77
2023/10/31 09:48:28;;;;;;;1.80;0.90;;;;;;;11.56;100.00;154328.19;5000498;28;20460;-76
2023/10/31 09:53:39;;;;;;;1.47;1.13;;;;;;;11.64;100.00;154348.94;4957314;26;20488;-77
2023/10/31 09:56:07;;;;;;;1.30;0.93;;;;;;;11.66;100.00;154354.09;4974252;28;20516;-76
2023/10/31 09:58:34;;;;;;;1.60;0.90;;;;;;;11.68;100.00;154359.28;4975345;28;20477;-77
2023/10/31 10:01:00;;;;;;;2.50;0.97;;;;;;;11.71;100.00;154365.81;4969614;28;20824;-76
2023/10/31 10:03:28;;;;;;;2.33;0.93;;;;;;;11.73;100.00;154372.28;4981011;28;20442;-76
2023/10/31 10:05:55;;;;;;;1.87;0.90;;;;;;;11.74;100.00;154374.88;4965737;28;20471;-76
2023/10/31 10:08:22;;;;;;;2.03;1.00;;;;;;;11.73;100.00;154372.28;4987127;28;20480;-76
2023/10/31 10:10:49;;;;;;;2.37;1.30;;;;;;;11.74;100.00;154374.88;4967670;28;20458;-77
2023/10/31 10:13:18;;;;;;;2.57;1.20;;;;;;;11.72;100.00;154368.41;4974361;28;20489;-77
2023/10/31 10:15:45;;;;;;;1.50;1.00;;;;;;;11.72;100.00;154369.72;4973560;28;20816;-76
2023/10/31 10:18:25;;;;;;;3.00;1.20;;;;;;;11.70;100.00;154364.53;4977210;28;20456;-76
2023/10/31 10:20:57;;;;;;;2.70;0.93;;;;;;;11.68;100.00;154357.97;4976647;28;20542;-76
2023/10/31 10:23:24;;;;;;;2.47;1.40;;;;;;;11.67;100.00;154356.72;4977652;28;20515;-77
2023/10/31 10:25:51;;;;;;;2.40;1.03;;;;;;;11.62;100.00;154345.00;4988371;28;20802;-76
2023/10/31 10:28:18;;;;;;;1.83;1.10;;;;;;;11.59;100.00;154335.97;4981089;28;20491;-76
2023/10/31 10:30:46;;;;;;;2.60;1.07;;;;;;;11.61;100.00;154342.44;4965202;28;20915;-76
2023/10/31 10:33:12;;;;;;;1.60;0.97;;;;;;;11.64;100.00;154348.94;4974445;28;20460;-77
2023/10/31 10:35:39;;;;;;;2.33;1.00;;;;;;;11.71;100.00;154367.09;4988136;28;20469;-76
2023/10/31 10:38:11;;;;;;;3.40;1.40;;;;;;;11.74;100.00;154374.88;4986971;28;20473;-76
2023/10/31 10:40:38;;;;;;;2.60;1.23;;;;;;;11.79;100.00;154387.84;4986256;28;20471;-77
2023/10/31 10:43:08;;;;;;;2.40;1.30;;;;;;;11.83;100.00;154396.94;4989888;28;20457;-77
2023/10/31 10:45:35;;;;;;;1.67;1.00;;;;;;;11.83;100.00;154398.22;4988165;28;20960;-77
2023/10/31 10:48:06;;;;;;;1.67;1.20;;;;;;;11.80;100.00;154390.44;4988715;28;20485;-77
2023/10/31 10:50:35;;;;;;;2.03;1.00;;;;;;;11.78;100.00;154385.22;4984266;28;20453;-76
2023/10/31 10:53:11;;;;;;;1.97;0.80;;;;;;;11.80;100.00;154390.44;4980567;28;20489;-76
2023/10/31 10:55:43;;;;;;;2.03;1.13;;;;;;;11.77;100.00;154382.66;4984097;28;20453;-77
2023/10/31 10:58:15;;;;;;;2.20;1.03;;;;;;;11.77;100.00;154382.66;4979041;28;20442;-76
2023/10/31 11:00:42;;;;;;;3.43;1.33;;;;;;;11.79;100.00;154387.84;4979266;28;21863;-76
2023/10/31 11:03:09;;;;;;;2.13;1.50;;;;;;;11.78;100.00;154385.22;4988066;28;20461;-77
2023/10/31 11:05:36;;;;;;;2.00;1.23;;;;;;;11.77;100.00;154381.38;4981508;28;20457;-77
2023/10/31 11:08:03;;;;;;;1.87;1.00;;;;;;;11.74;100.00;154374.88;4978596;28;20535;-76
2023/10/31 11:10:31;;;;;;;2.20;1.40;;;;;;;11.72;100.00;154368.41;4977824;28;20462;-77
2023/10/31 11:12:58;;;;;;;2.57;1.60;;;;;;;11.72;100.00;154368.41;4984654;28;20459;-77
2023/10/31 11:15:26;;;;;;;2.80;1.40;;;;;;;11.75;100.00;154377.50;4981197;28;20485;-77
2023/10/31 11:17:53;;;;;;;3.37;1.00;;;;;;;11.76;100.00;154380.06;4981430;28;20978;-76
2023/10/31 11:20:20;;;;;;;2.50;1.30;;;;;;;11.80;100.00;154390.44;4976048;28;20457;-77